sensor_id;sensor_type;location;lat;lon;timestamp;temperature;humidity
29201;DHT22;16244;51.956;12.980;2022-09-30T00:01:39;5.30;99.90
29201;DHT22;16244;51.956;12.980;2022-09-30T00:04:09;5.20;99.90
29201;DHT22;16244;51.956;12.980;2022-09-30T00:06:38;5.10;99.90
29201;DHT22;16244;51.956;12.980;2022-09-30T00:09:06;5.10;99.90
29201;DHT22;16244;51.956;12.980;2022-09-30T00:11:34;5.10;99.90
29201;DHT22;16244;51.956;12.980;2022-09-30T00:14:03;5.10;99.90
29201;DHT22;16244;51.956;12.980;2022-09-30T00:16:33;5.10;99.90
29201;DHT22;16244;51.956;12.980;2022-09-30T00:19:02;5.20;99.90
29201;DHT22;16244;51.956;12.980;2022-09-30T00:21:31;5.20;99.90
29201;DHT22;16244;51.956;12.980;2022-09-30T00:23:59;5.30;99.90
29201;DHT22;16244;51.956;12.980;2022-09-30T00:26:26;5.30;99.90
29201;DHT22;16244;51.956;12.980;2022-09-30T00:28:54;5.30;99.90
29201;DHT22;16244;51.956;12.980;2022-09-30T00:31:23;5.30;99.90
29201;DHT22;16244;51.956;12.980;2022-09-30T00:33:51;5.30;99.90
29201;DHT22;16244;51.956;12.980;2022-09-30T00:36:33;5.30;99.90
29201;DHT22;16244;51.956;12.980;2022-09-30T00:39:00;5.20;99.90
29201;DHT22;16244;51.956;12.980;2022-09-30T00:41:28;5.20;99.90
29201;DHT22;16244;51.956;12.980;2022-09-30T00:43:55;5.20;99.90
29201;DHT22;16244;51.956;12.980;2022-09-30T00:46:32;5.20;99.90
29201;DHT22;16244;51.956;12.980;2022-09-30T00:49:05;5.20;99.90
29201;DHT22;16244;51.956;12.980;2022-09-30T00:51:36;5.20;99.90
29201;DHT22;16244;51.956;12.980;2022-09-30T00:54:09;5.20;99.90
29201;DHT22;16244;51.956;12.980;2022-09-30T00:56:40;5.20;99.90
29201;DHT22;16244;51.956;12.980;2022-09-30T00:59:12;5.10;99.90
29201;DHT22;16244;51.956;12.980;2022-09-30T01:01:41;5.10;99.90
29201;DHT22;16244;51.956;12.980;2022-09-30T01:04:11;5.10;99.90
29201;DHT22;16244;51.956;12.980;2022-09-30T01:06:40;5.00;99.90
29201;DHT22;16244;51.956;12.980;2022-09-30T01:09:08;5.00;99.90
29201;DHT22;16244;51.956;12.980;2022-09-30T01:11:36;4.90;99.90
29201;DHT22;16244;51.956;12.980;2022-09-30T01:14:10;4.90;99.90
29201;DHT22;16244;51.956;12.980;2022-09-30T01:16:49;4.90;99.90
29201;DHT22;16244;51.956;12.980;2022-09-30T01:20:05;4.90;99.90
29201;DHT22;16244;51.956;12.980;2022-09-30T01:22:41;4.80;99.90
29201;DHT22;16244;51.956;12.980;2022-09-30T01:25:29;4.80;99.90
29201;DHT22;16244;51.956;12.980;2022-09-30T01:28:19;4.80;99.90
29201;DHT22;16244;51.956;12.980;2022-09-30T01:31:02;4.80;99.90
29201;DHT22;16244;51.956;12.980;2022-09-30T01:33:38;4.80;99.90
29201;DHT22;16244;51.956;12.980;2022-09-30T01:36:20;4.80;99.90
29201;DHT22;16244;51.956;12.980;2022-09-30T01:38:54;4.90;99.90
29201;DHT22;16244;51.956;12.980;2022-09-30T01:41:30;4.90;99.90
29201;DHT22;16244;51.956;12.980;2022-09-30T01:44:03;4.90;99.90
29201;DHT22;16244;51.956;12.980;2022-09-30T01:46:37;4.90;99.90
29201;DHT22;16244;51.956;12.980;2022-09-30T01:49:12;4.90;99.90
29201;DHT22;16244;51.956;12.980;2022-09-30T01:51:51;4.80;99.90
29201;DHT22;16244;51.956;12.980;2022-09-30T01:54:25;4.70;99.90
29201;DHT22;16244;51.956;12.980;2022-09-30T01:56:59;4.60;99.90
29201;DHT22;16244;51.956;12.980;2022-09-30T01:59:32;4.50;99.90
29201;DHT22;16244;51.956;12.980;2022-09-30T02:02:06;4.40;99.90
29201;DHT22;16244;51.956;12.980;2022-09-30T02:04:37;4.40;99.90
29201;DHT22;16244;51.956;12.980;2022-09-30T02:07:10;4.40;99.90
29201;DHT22;16244;51.956;12.980;2022-09-30T02:09:42;4.40;99.90
29201;DHT22;16244;51.956;12.980;2022-09-30T02:12:14;4.40;99.90
29201;DHT22;16244;51.956;12.980;2022-09-30T02:14:45;4.50;99.90
29201;DHT22;16244;51.956;12.980;2022-09-30T02:17:17;4.50;99.90
29201;DHT22;16244;51.956;12.980;2022-09-30T02:19:49;4.40;99.90
29201;DHT22;16244;51.956;12.980;2022-09-30T02:22:20;4.50;99.90
29201;DHT22;16244;51.956;12.980;2022-09-30T02:24:52;4.40;99.90
29201;DHT22;16244;51.956;12.980;2022-09-30T02:27:24;4.50;99.90
29201;DHT22;16244;51.956;12.980;2022-09-30T02:29:56;4.50;99.90
29201;DHT22;16244;51.956;12.980;2022-09-30T02:32:29;4.60;99.90
29201;DHT22;16244;51.956;12.980;2022-09-30T02:35:01;4.60;99.90
29201;DHT22;16244;51.956;12.980;2022-09-30T02:37:33;4.50;99.90
29201;DHT22;16244;51.956;12.980;2022-09-30T02:40:05;4.60;99.90
29201;DHT22;16244;51.956;12.980;2022-09-30T02:42:34;4.60;99.90
29201;DHT22;16244;51.956;12.980;2022-09-30T02:45:03;4.40;99.90
29201;DHT22;16244;51.956;12.980;2022-09-30T02:47:43;4.10;99.90
29201;DHT22;16244;51.956;12.980;2022-09-30T02:50:17;3.80;99.90
29201;DHT22;16244;51.956;12.980;2022-09-30T02:52:52;3.60;99.90
29201;DHT22;16244;51.956;12.980;2022-09-30T02:55:27;3.50;99.90
29201;DHT22;16244;51.956;12.980;2022-09-30T02:58:03;3.40;99.90
29201;DHT22;16244;51.956;12.980;2022-09-30T03:00:33;3.50;99.90
29201;DHT22;16244;51.956;12.980;2022-09-30T03:03:04;3.70;99.90
29201;DHT22;16244;51.956;12.980;2022-09-30T03:05:33;3.80;99.90
29201;DHT22;16244;51.956;12.980;2022-09-30T03:08:00;4.00;99.90
29201;DHT22;16244;51.956;12.980;2022-09-30T03:10:29;4.10;99.90
29201;DHT22;16244;51.956;12.980;2022-09-30T03:13:08;4.20;99.90
29201;DHT22;16244;51.956;12.980;2022-09-30T03:15:45;4.30;99.90
29201;DHT22;16244;51.956;12.980;2022-09-30T03:18:28;4.30;99.90
29201;DHT22;16244;51.956;12.980;2022-09-30T03:21:07;4.30;99.90
29201;DHT22;16244;51.956;12.980;2022-09-30T03:24:03;4.30;99.90
29201;DHT22;16244;51.956;12.980;2022-09-30T03:26:39;4.10;99.90
29201;DHT22;16244;51.956;12.980;2022-09-30T03:29:18;3.90;99.90
29201;DHT22;16244;51.956;12.980;2022-09-30T03:32:01;3.90;99.90
29201;DHT22;16244;51.956;12.980;2022-09-30T03:34:41;4.00;99.90
29201;DHT22;16244;51.956;12.980;2022-09-30T03:37:20;4.10;99.90
29201;DHT22;16244;51.956;12.980;2022-09-30T03:39:55;4.10;99.90
29201;DHT22;16244;51.956;12.980;2022-09-30T03:42:27;4.10;99.90
29201;DHT22;16244;51.956;12.980;2022-09-30T03:45:01;4.10;99.90
29201;DHT22;16244;51.956;12.980;2022-09-30T03:47:32;4.00;99.90
29201;DHT22;16244;51.956;12.980;2022-09-30T03:50:05;3.90;99.90
29201;DHT22;16244;51.956;12.980;2022-09-30T03:52:34;4.00;99.90
29201;DHT22;16244;51.956;12.980;2022-09-30T03:55:04;4.00;99.90
29201;DHT22;16244;51.956;12.980;2022-09-30T03:57:33;4.10;99.90
29201;DHT22;16244;51.956;12.980;2022-09-30T04:00:00;4.10;99.90
29201;DHT22;16244;51.956;12.980;2022-09-30T04:02:27;4.10;99.90
29201;DHT22;16244;51.956;12.980;2022-09-30T04:04:55;4.10;99.90
29201;DHT22;16244;51.956;12.980;2022-09-30T04:07:26;4.10;99.90
29201;DHT22;16244;51.956;12.980;2022-09-30T04:09:54;4.10;99.90
29201;DHT22;16244;51.956;12.980;2022-09-30T04:12:22;4.10;99.90
29201;DHT22;16244;51.956;12.980;2022-09-30T04:14:50;4.00;99.90
29201;DHT22;16244;51.956;12.980;2022-09-30T04:17:19;3.90;99.90
29201;DHT22;16244;51.956;12.980;2022-09-30T04:19:47;3.90;99.90
29201;DHT22;16244;51.956;12.980;2022-09-30T04:22:16;3.80;99.90
29201;DHT22;16244;51.956;12.980;2022-09-30T04:24:45;3.80;99.90
29201;DHT22;16244;51.956;12.980;2022-09-30T04:27:13;3.80;99.90
29201;DHT22;16244;51.956;12.980;2022-09-30T04:29:40;3.80;99.90
29201;DHT22;16244;51.956;12.980;2022-09-30T04:32:08;3.80;99.90
29201;DHT22;16244;51.956;12.980;2022-09-30T04:34:37;3.80;99.90
29201;DHT22;16244;51.956;12.980;2022-09-30T04:37:06;3.80;99.90
29201;DHT22;16244;51.956;12.980;2022-09-30T04:39:35;3.80;99.90
29201;DHT22;16244;51.956;12.980;2022-09-30T04:42:04;3.70;99.90
29201;DHT22;16244;51.956;12.980;2022-09-30T04:44:33;3.60;99.90
29201;DHT22;16244;51.956;12.980;2022-09-30T04:47:16;3.70;99.90
29201;DHT22;16244;51.956;12.980;2022-09-30T04:50:21;3.70;99.90
29201;DHT22;16244;51.956;12.980;2022-09-30T04:53:17;3.70;99.90
29201;DHT22;16244;51.956;12.980;2022-09-30T04:56:15;3.60;99.90
29201;DHT22;16244;51.956;12.980;2022-09-30T04:59:16;3.70;99.90
29201;DHT22;16244;51.956;12.980;2022-09-30T05:02:35;3.70;99.90
29201;DHT22;16244;51.956;12.980;2022-09-30T05:05:18;3.70;99.90
29201;DHT22;16244;51.956;12.980;2022-09-30T05:08:00;3.80;99.90
29201;DHT22;16244;51.956;12.980;2022-09-30T05:11:20;3.70;99.90
29201;DHT22;16244;51.956;12.980;2022-09-30T05:14:19;3.70;99.90
29201;DHT22;16244;51.956;12.980;2022-09-30T05:17:15;3.80;99.90
29201;DHT22;16244;51.956;12.980;2022-09-30T05:20:18;3.80;99.90
29201;DHT22;16244;51.956;12.980;2022-09-30T05:23:03;3.80;99.90
29201;DHT22;16244;51.956;12.980;2022-09-30T05:47:33;3.40;99.90
29201;DHT22;16244;51.956;12.980;2022-09-30T05:51:02;3.40;99.90
29201;DHT22;16244;51.956;12.980;2022-09-30T05:58:33;3.70;99.90
29201;DHT22;16244;51.956;12.980;2022-09-30T06:01:38;3.90;99.90
29201;DHT22;16244;51.956;12.980;2022-09-30T06:22:19;4.60;99.90
29201;DHT22;16244;51.956;12.980;2022-09-30T06:25:30;4.80;99.90
29201;DHT22;16244;51.956;12.980;2022-09-30T06:28:20;4.90;99.90
29201;DHT22;16244;51.956;12.980;2022-09-30T06:31:18;5.00;99.90
29201;DHT22;16244;51.956;12.980;2022-09-30T06:34:05;5.10;99.90
29201;DHT22;16244;51.956;12.980;2022-09-30T06:44:10;5.90;99.90
29201;DHT22;16244;51.956;12.980;2022-09-30T06:47:28;6.20;99.90
29201;DHT22;16244;51.956;12.980;2022-09-30T06:50:30;6.60;99.90
29201;DHT22;16244;51.956;12.980;2022-09-30T06:53:26;6.90;99.90
29201;DHT22;16244;51.956;12.980;2022-09-30T06:56:44;7.30;99.90
29201;DHT22;16244;51.956;12.980;2022-09-30T06:59:36;7.70;99.90
29201;DHT22;16244;51.956;12.980;2022-09-30T07:02:32;8.10;99.90
29201;DHT22;16244;51.956;12.980;2022-09-30T07:05:31;8.50;99.90
29201;DHT22;16244;51.956;12.980;2022-09-30T07:08:29;9.00;99.90
29201;DHT22;16244;51.956;12.980;2022-09-30T07:11:44;9.40;99.90
29201;DHT22;16244;51.956;12.980;2022-09-30T07:18:21;10.20;99.90
29201;DHT22;16244;51.956;12.980;2022-09-30T07:21:29;10.40;99.90
29201;DHT22;16244;51.956;12.980;2022-09-30T07:24:12;10.70;99.90
29201;DHT22;16244;51.956;12.980;2022-09-30T07:26:39;10.90;99.90
29201;DHT22;16244;51.956;12.980;2022-09-30T07:29:06;11.30;99.90
29201;DHT22;16244;51.956;12.980;2022-09-30T07:31:34;11.70;99.90
29201;DHT22;16244;51.956;12.980;2022-09-30T07:34:04;11.90;99.90
29201;DHT22;16244;51.956;12.980;2022-09-30T07:36:33;12.20;99.90
29201;DHT22;16244;51.956;12.980;2022-09-30T07:39:03;12.50;99.90
29201;DHT22;16244;51.956;12.980;2022-09-30T07:41:31;12.70;99.90
29201;DHT22;16244;51.956;12.980;2022-09-30T07:44:01;13.10;99.90
29201;DHT22;16244;51.956;12.980;2022-09-30T07:46:30;13.50;99.90
29201;DHT22;16244;51.956;12.980;2022-09-30T07:48:59;13.90;99.90
29201;DHT22;16244;51.956;12.980;2022-09-30T07:51:29;14.40;99.90
29201;DHT22;16244;51.956;12.980;2022-09-30T07:53:59;14.50;99.90
29201;DHT22;16244;51.956;12.980;2022-09-30T07:56:27;14.50;99.90
29201;DHT22;16244;51.956;12.980;2022-09-30T07:58:55;14.50;99.90
29201;DHT22;16244;51.956;12.980;2022-09-30T08:01:25;14.70;99.90
29201;DHT22;16244;51.956;12.980;2022-09-30T08:03:53;14.40;99.90
29201;DHT22;16244;51.956;12.980;2022-09-30T08:06:22;14.70;99.90
29201;DHT22;16244;51.956;12.980;2022-09-30T08:08:53;15.30;99.90
29201;DHT22;16244;51.956;12.980;2022-09-30T08:11:21;15.80;99.90
29201;DHT22;16244;51.956;12.980;2022-09-30T08:13:50;16.20;99.90
29201;DHT22;16244;51.956;12.980;2022-09-30T08:16:18;16.60;99.90
29201;DHT22;16244;51.956;12.980;2022-09-30T08:18:45;16.60;99.90
29201;DHT22;16244;51.956;12.980;2022-09-30T08:21:12;16.40;99.90
29201;DHT22;16244;51.956;12.980;2022-09-30T08:23:40;16.70;99.90
29201;DHT22;16244;51.956;12.980;2022-09-30T08:26:10;17.10;99.90
29201;DHT22;16244;51.956;12.980;2022-09-30T08:28:38;17.20;99.90
29201;DHT22;16244;51.956;12.980;2022-09-30T08:31:07;17.20;99.90
29201;DHT22;16244;51.956;12.980;2022-09-30T08:33:34;17.60;99.90
29201;DHT22;16244;51.956;12.980;2022-09-30T08:36:03;18.00;99.90
29201;DHT22;16244;51.956;12.980;2022-09-30T08:38:30;18.10;99.90
29201;DHT22;16244;51.956;12.980;2022-09-30T08:41:05;18.20;99.90
29201;DHT22;16244;51.956;12.980;2022-09-30T08:43:40;18.40;99.90
29201;DHT22;16244;51.956;12.980;2022-09-30T08:46:11;18.80;99.90
29201;DHT22;16244;51.956;12.980;2022-09-30T08:48:48;18.60;99.90
29201;DHT22;16244;51.956;12.980;2022-09-30T08:51:29;19.20;99.90
29201;DHT22;16244;51.956;12.980;2022-09-30T08:53:59;19.30;99.90
29201;DHT22;16244;51.956;12.980;2022-09-30T08:56:29;19.60;99.90
29201;DHT22;16244;51.956;12.980;2022-09-30T08:59:03;19.90;99.90
29201;DHT22;16244;51.956;12.980;2022-09-30T09:01:32;19.80;99.90
29201;DHT22;16244;51.956;12.980;2022-09-30T09:04:01;19.90;99.90
29201;DHT22;16244;51.956;12.980;2022-09-30T09:06:33;20.10;99.90
29201;DHT22;16244;51.956;12.980;2022-09-30T09:09:36;20.40;99.90
29201;DHT22;16244;51.956;12.980;2022-09-30T09:12:16;20.50;99.90
29201;DHT22;16244;51.956;12.980;2022-09-30T09:15:00;20.80;99.90
29201;DHT22;16244;51.956;12.980;2022-09-30T09:17:42;21.00;99.90
29201;DHT22;16244;51.956;12.980;2022-09-30T09:20:15;21.30;99.90
29201;DHT22;16244;51.956;12.980;2022-09-30T09:22:44;21.40;99.90
29201;DHT22;16244;51.956;12.980;2022-09-30T09:25:16;21.40;99.90
29201;DHT22;16244;51.956;12.980;2022-09-30T09:27:48;21.20;99.90
29201;DHT22;16244;51.956;12.980;2022-09-30T09:30:20;21.40;99.90
29201;DHT22;16244;51.956;12.980;2022-09-30T09:32:51;21.60;99.90
29201;DHT22;16244;51.956;12.980;2022-09-30T09:35:32;21.70;99.90
29201;DHT22;16244;51.956;12.980;2022-09-30T09:38:05;21.70;99.90
29201;DHT22;16244;51.956;12.980;2022-09-30T09:41:06;21.70;99.90
29201;DHT22;16244;51.956;12.980;2022-09-30T09:43:48;21.70;99.90
29201;DHT22;16244;51.956;12.980;2022-09-30T09:46:21;21.80;99.90
29201;DHT22;16244;51.956;12.980;2022-09-30T09:49:27;21.80;99.90
29201;DHT22;16244;51.956;12.980;2022-09-30T09:54:44;22.20;99.90
29201;DHT22;16244;51.956;12.980;2022-09-30T09:57:13;22.30;99.90
29201;DHT22;16244;51.956;12.980;2022-09-30T09:59:54;22.50;99.90
29201;DHT22;16244;51.956;12.980;2022-09-30T10:02:25;22.20;99.90
29201;DHT22;16244;51.956;12.980;2022-09-30T10:04:53;22.10;99.90
29201;DHT22;16244;51.956;12.980;2022-09-30T10:07:26;21.90;99.90
29201;DHT22;16244;51.956;12.980;2022-09-30T10:10:15;22.30;99.90
29201;DHT22;16244;51.956;12.980;2022-09-30T10:12:43;22.30;99.90
29201;DHT22;16244;51.956;12.980;2022-09-30T10:15:20;22.60;99.90
29201;DHT22;16244;51.956;12.980;2022-09-30T10:17:54;22.30;99.90
29201;DHT22;16244;51.956;12.980;2022-09-30T10:20:26;22.70;99.90
29201;DHT22;16244;51.956;12.980;2022-09-30T10:23:07;22.80;99.00
29201;DHT22;16244;51.956;12.980;2022-09-30T10:25:35;22.40;99.40
29201;DHT22;16244;51.956;12.980;2022-09-30T10:28:19;21.90;99.90
29201;DHT22;16244;51.956;12.980;2022-09-30T10:30:49;21.80;99.90
29201;DHT22;16244;51.956;12.980;2022-09-30T10:33:25;21.60;99.90
29201;DHT22;16244;51.956;12.980;2022-09-30T10:36:06;21.70;99.90
29201;DHT22;16244;51.956;12.980;2022-09-30T10:38:35;21.60;99.20
29201;DHT22;16244;51.956;12.980;2022-09-30T10:41:04;21.60;98.90
29201;DHT22;16244;51.956;12.980;2022-09-30T10:43:37;21.30;99.40
29201;DHT22;16244;51.956;12.980;2022-09-30T10:46:07;20.50;99.90
29201;DHT22;16244;51.956;12.980;2022-09-30T10:48:37;19.80;99.90
29201;DHT22;16244;51.956;12.980;2022-09-30T10:51:19;19.20;99.90
29201;DHT22;16244;51.956;12.980;2022-09-30T10:53:48;18.70;99.90
29201;DHT22;16244;51.956;12.980;2022-09-30T10:56:38;18.20;99.90
29201;DHT22;16244;51.956;12.980;2022-09-30T10:59:18;17.80;99.90
29201;DHT22;16244;51.956;12.980;2022-09-30T11:01:50;17.50;99.90
29201;DHT22;16244;51.956;12.980;2022-09-30T11:04:26;17.20;99.90
29201;DHT22;16244;51.956;12.980;2022-09-30T11:06:59;17.00;99.90
29201;DHT22;16244;51.956;12.980;2022-09-30T11:09:34;16.90;99.90
29201;DHT22;16244;51.956;12.980;2022-09-30T11:12:08;16.80;99.90
29201;DHT22;16244;51.956;12.980;2022-09-30T11:14:43;16.70;99.90
29201;DHT22;16244;51.956;12.980;2022-09-30T11:17:24;16.60;99.90
29201;DHT22;16244;51.956;12.980;2022-09-30T11:20:04;16.50;99.90
29201;DHT22;16244;51.956;12.980;2022-09-30T11:22:43;16.40;99.90
29201;DHT22;16244;51.956;12.980;2022-09-30T11:25:14;16.40;99.90
29201;DHT22;16244;51.956;12.980;2022-09-30T11:27:50;16.30;99.90
29201;DHT22;16244;51.956;12.980;2022-09-30T11:30:20;16.30;99.90
29201;DHT22;16244;51.956;12.980;2022-09-30T11:33:00;16.30;99.90
29201;DHT22;16244;51.956;12.980;2022-09-30T11:35:43;16.20;99.90
29201;DHT22;16244;51.956;12.980;2022-09-30T11:38:36;16.20;99.90
29201;DHT22;16244;51.956;12.980;2022-09-30T11:41:12;16.20;99.90
29201;DHT22;16244;51.956;12.980;2022-09-30T11:43:46;16.20;99.90
29201;DHT22;16244;51.956;12.980;2022-09-30T11:49:34;16.20;99.90
29201;DHT22;16244;51.956;12.980;2022-09-30T11:52:13;16.20;99.90
29201;DHT22;16244;51.956;12.980;2022-09-30T11:55:00;16.10;99.90
29201;DHT22;16244;51.956;12.980;2022-09-30T11:57:35;16.00;99.90
29201;DHT22;16244;51.956;12.980;2022-09-30T12:00:05;16.00;99.90
29201;DHT22;16244;51.956;12.980;2022-09-30T12:02:41;16.00;99.90
29201;DHT22;16244;51.956;12.980;2022-09-30T12:05:11;16.00;99.90
29201;DHT22;16244;51.956;12.980;2022-09-30T12:07:45;16.00;99.90
29201;DHT22;16244;51.956;12.980;2022-09-30T12:10:17;15.90;99.90
29201;DHT22;16244;51.956;12.980;2022-09-30T12:12:49;15.80;99.90
29201;DHT22;16244;51.956;12.980;2022-09-30T12:15:19;15.80;99.90
29201;DHT22;16244;51.956;12.980;2022-09-30T12:17:51;15.80;99.90
29201;DHT22;16244;51.956;12.980;2022-09-30T12:20:24;15.80;99.90
29201;DHT22;16244;51.956;12.980;2022-09-30T12:22:57;15.80;99.90
29201;DHT22;16244;51.956;12.980;2022-09-30T12:25:30;15.90;99.90
29201;DHT22;16244;51.956;12.980;2022-09-30T12:28:02;15.90;99.90
29201;DHT22;16244;51.956;12.980;2022-09-30T12:30:59;15.90;99.90
29201;DHT22;16244;51.956;12.980;2022-09-30T12:33:43;15.90;99.90
29201;DHT22;16244;51.956;12.980;2022-09-30T12:42:49;15.90;99.90
29201;DHT22;16244;51.956;12.980;2022-09-30T12:45:31;15.90;99.90
29201;DHT22;16244;51.956;12.980;2022-09-30T12:48:02;16.00;99.90
29201;DHT22;16244;51.956;12.980;2022-09-30T12:50:34;15.90;99.90
29201;DHT22;16244;51.956;12.980;2022-09-30T12:53:11;15.90;99.90
29201;DHT22;16244;51.956;12.980;2022-09-30T12:55:42;15.80;99.90
29201;DHT22;16244;51.956;12.980;2022-09-30T12:58:19;15.80;99.90
29201;DHT22;16244;51.956;12.980;2022-09-30T13:00:59;15.70;99.90
29201;DHT22;16244;51.956;12.980;2022-09-30T13:03:27;15.80;99.90
29201;DHT22;16244;51.956;12.980;2022-09-30T13:05:56;15.90;99.90
29201;DHT22;16244;51.956;12.980;2022-09-30T13:11:39;16.20;99.90
29201;DHT22;16244;51.956;12.980;2022-09-30T13:14:29;16.40;99.90
29201;DHT22;16244;51.956;12.980;2022-09-30T13:17:22;16.50;99.90
29201;DHT22;16244;51.956;12.980;2022-09-30T13:19:50;16.40;99.90
29201;DHT22;16244;51.956;12.980;2022-09-30T13:22:57;16.30;99.90
29201;DHT22;16244;51.956;12.980;2022-09-30T13:25:24;16.10;99.90
29201;DHT22;16244;51.956;12.980;2022-09-30T13:31:12;16.00;99.90
29201;DHT22;16244;51.956;12.980;2022-09-30T13:33:43;16.00;99.90
29201;DHT22;16244;51.956;12.980;2022-09-30T13:36:24;16.10;99.90
29201;DHT22;16244;51.956;12.980;2022-09-30T13:39:13;16.20;99.90
29201;DHT22;16244;51.956;12.980;2022-09-30T13:41:43;16.20;99.90
29201;DHT22;16244;51.956;12.980;2022-09-30T13:44:15;16.10;99.90
29201;DHT22;16244;51.956;12.980;2022-09-30T13:46:48;16.10;99.90
29201;DHT22;16244;51.956;12.980;2022-09-30T13:49:20;16.10;99.90
29201;DHT22;16244;51.956;12.980;2022-09-30T13:51:48;16.10;99.90
29201;DHT22;16244;51.956;12.980;2022-09-30T13:54:23;16.10;99.90
29201;DHT22;16244;51.956;12.980;2022-09-30T13:56:52;16.10;99.90
29201;DHT22;16244;51.956;12.980;2022-09-30T13:59:41;16.10;99.90
29201;DHT22;16244;51.956;12.980;2022-09-30T14:02:33;16.10;99.90
29201;DHT22;16244;51.956;12.980;2022-09-30T14:05:32;16.10;99.90
29201;DHT22;16244;51.956;12.980;2022-09-30T14:08:33;16.10;99.90
29201;DHT22;16244;51.956;12.980;2022-09-30T14:11:22;16.10;99.90
29201;DHT22;16244;51.956;12.980;2022-09-30T14:14:03;16.10;99.90
29201;DHT22;16244;51.956;12.980;2022-09-30T14:16:52;16.00;99.90
29201;DHT22;16244;51.956;12.980;2022-09-30T14:19:37;15.90;99.90
29201;DHT22;16244;51.956;12.980;2022-09-30T14:22:10;15.90;99.90
29201;DHT22;16244;51.956;12.980;2022-09-30T14:24:39;15.80;99.90
29201;DHT22;16244;51.956;12.980;2022-09-30T14:29:58;15.60;99.90
29201;DHT22;16244;51.956;12.980;2022-09-30T14:32:31;15.60;99.90
29201;DHT22;16244;51.956;12.980;2022-09-30T14:35:04;15.50;99.90
29201;DHT22;16244;51.956;12.980;2022-09-30T14:37:37;15.40;99.90
29201;DHT22;16244;51.956;12.980;2022-09-30T14:40:08;15.40;99.90
29201;DHT22;16244;51.956;12.980;2022-09-30T14:42:39;15.40;99.90
29201;DHT22;16244;51.956;12.980;2022-09-30T14:45:08;15.50;99.90
29201;DHT22;16244;51.956;12.980;2022-09-30T14:47:37;15.50;99.90
29201;DHT22;16244;51.956;12.980;2022-09-30T14:50:10;15.40;99.90
29201;DHT22;16244;51.956;12.980;2022-09-30T14:52:42;15.50;99.90
29201;DHT22;16244;51.956;12.980;2022-09-30T14:55:21;15.50;99.90
29201;DHT22;16244;51.956;12.980;2022-09-30T14:57:50;15.40;99.90
29201;DHT22;16244;51.956;12.980;2022-09-30T15:00:19;15.40;99.90
29201;DHT22;16244;51.956;12.980;2022-09-30T15:02:46;15.40;99.90
29201;DHT22;16244;51.956;12.980;2022-09-30T15:05:16;15.40;99.90
29201;DHT22;16244;51.956;12.980;2022-09-30T15:07:43;15.30;99.90
29201;DHT22;16244;51.956;12.980;2022-09-30T15:10:18;15.30;99.90
29201;DHT22;16244;51.956;12.980;2022-09-30T15:12:47;15.30;99.90
29201;DHT22;16244;51.956;12.980;2022-09-30T15:15:23;15.30;99.90
29201;DHT22;16244;51.956;12.980;2022-09-30T15:17:51;15.30;99.90
29201;DHT22;16244;51.956;12.980;2022-09-30T15:20:27;15.30;99.90
29201;DHT22;16244;51.956;12.980;2022-09-30T15:22:56;15.30;99.90
29201;DHT22;16244;51.956;12.980;2022-09-30T15:25:26;15.30;99.90
29201;DHT22;16244;51.956;12.980;2022-09-30T15:27:54;15.30;99.90
29201;DHT22;16244;51.956;12.980;2022-09-30T15:30:23;15.20;99.90
29201;DHT22;16244;51.956;12.980;2022-09-30T15:32:57;15.10;99.90
29201;DHT22;16244;51.956;12.980;2022-09-30T15:35:26;15.00;99.90
29201;DHT22;16244;51.956;12.980;2022-09-30T15:38:05;14.90;99.90
29201;DHT22;16244;51.956;12.980;2022-09-30T15:40:33;14.80;99.90
29201;DHT22;16244;51.956;12.980;2022-09-30T15:43:15;14.70;99.90
29201;DHT22;16244;51.956;12.980;2022-09-30T15:45:52;14.70;99.90
29201;DHT22;16244;51.956;12.980;2022-09-30T15:48:32;14.60;99.90
29201;DHT22;16244;51.956;12.980;2022-09-30T15:51:22;14.60;99.90
29201;DHT22;16244;51.956;12.980;2022-09-30T15:53:50;14.50;99.90
29201;DHT22;16244;51.956;12.980;2022-09-30T15:56:23;14.50;99.90
29201;DHT22;16244;51.956;12.980;2022-09-30T15:58:55;14.40;99.90
29201;DHT22;16244;51.956;12.980;2022-09-30T16:01:23;14.30;99.90
29201;DHT22;16244;51.956;12.980;2022-09-30T16:03:54;14.30;99.90
29201;DHT22;16244;51.956;12.980;2022-09-30T16:06:56;14.20;99.90
29201;DHT22;16244;51.956;12.980;2022-09-30T16:09:56;14.10;99.90
29201;DHT22;16244;51.956;12.980;2022-09-30T16:12:44;13.90;99.90
29201;DHT22;16244;51.956;12.980;2022-09-30T16:15:46;13.80;99.90
29201;DHT22;16244;51.956;12.980;2022-09-30T16:18:30;13.70;99.90
29201;DHT22;16244;51.956;12.980;2022-09-30T16:21:00;13.60;99.90
29201;DHT22;16244;51.956;12.980;2022-09-30T16:24:00;13.50;99.90
29201;DHT22;16244;51.956;12.980;2022-09-30T16:26:43;13.40;99.90
29201;DHT22;16244;51.956;12.980;2022-09-30T16:29:30;13.20;99.90
29201;DHT22;16244;51.956;12.980;2022-09-30T16:32:17;13.10;99.90
29201;DHT22;16244;51.956;12.980;2022-09-30T16:35:00;13.00;99.90
29201;DHT22;16244;51.956;12.980;2022-09-30T16:37:41;12.80;99.90
29201;DHT22;16244;51.956;12.980;2022-09-30T16:40:34;12.80;99.90
29201;DHT22;16244;51.956;12.980;2022-09-30T16:43:33;12.60;99.90
29201;DHT22;16244;51.956;12.980;2022-09-30T16:46:27;12.50;99.90
29201;DHT22;16244;51.956;12.980;2022-09-30T16:48:54;12.40;99.90
29201;DHT22;16244;51.956;12.980;2022-09-30T16:51:21;12.20;99.90
29201;DHT22;16244;51.956;12.980;2022-09-30T16:53:48;12.10;99.90
29201;DHT22;16244;51.956;12.980;2022-09-30T16:56:17;12.10;99.90
29201;DHT22;16244;51.956;12.980;2022-09-30T16:58:46;12.00;99.90
29201;DHT22;16244;51.956;12.980;2022-09-30T17:01:18;11.90;99.90
29201;DHT22;16244;51.956;12.980;2022-09-30T17:03:47;11.90;99.90
29201;DHT22;16244;51.956;12.980;2022-09-30T17:06:16;11.80;99.90
29201;DHT22;16244;51.956;12.980;2022-09-30T17:08:43;11.70;99.90
29201;DHT22;16244;51.956;12.980;2022-09-30T17:11:10;11.60;99.90
29201;DHT22;16244;51.956;12.980;2022-09-30T17:13:37;11.50;99.90
29201;DHT22;16244;51.956;12.980;2022-09-30T17:16:05;11.50;99.90
29201;DHT22;16244;51.956;12.980;2022-09-30T17:18:32;11.30;99.90
29201;DHT22;16244;51.956;12.980;2022-09-30T17:21:01;11.20;99.90
29201;DHT22;16244;51.956;12.980;2022-09-30T17:23:28;11.20;99.90
29201;DHT22;16244;51.956;12.980;2022-09-30T17:25:55;11.10;99.90
29201;DHT22;16244;51.956;12.980;2022-09-30T17:28:22;11.00;99.90
29201;DHT22;16244;51.956;12.980;2022-09-30T17:30:50;10.90;99.90
29201;DHT22;16244;51.956;12.980;2022-09-30T17:33:17;10.90;99.90
29201;DHT22;16244;51.956;12.980;2022-09-30T17:35:44;10.80;99.90
29201;DHT22;16244;51.956;12.980;2022-09-30T17:38:12;10.80;99.90